Aérodrome :
LOGIN :

S'inscrire | Disclaimer

   EN    FR    IT 

 










Légende :    VFR   VFR Marginal   IFR   IFR Intensif   IFR Très Intensif
Visi : 
Plafond : 
>= 8 km
>= 3000ft
5 à 8 km
1000 à 3000 ft
1500m à 5 km
500 à 1000 ft
800 à 1500m
200 à 500 ft
< 800m
< 200 ft
Symboles :   Orages  Brouillard  Fortes neiges  Fortes précipitations  Vent > 20 kt
SIGMETs :   Divers  Orages  Givrage  Turbulence  Onde Orograph.  Cendres Volcan.







- Altitude de l'aérodrome : 291 ft
- Code IATA : ORY
- Voir les cartes d'approche


LFPO - Paris-Orly

DERNIER METAR :
  • 211400Z 18005KT 110V230 9999 FEW033 16/06 Q1028 NOSIG

METARs EXPIRÉS :
  • 211330Z 22003KT 140V300 9999 FEW033 16/07 Q1028 NOSIG
  • 211300Z 23004KT 140V310 9999 FEW033 SCT260 15/07 Q1028 NOSIG
  • 211230Z VRB02KT CAVOK 15/07 Q1028 NOSIG
  • 211200Z VRB02KT CAVOK 14/06 Q1029 NOSIG
  • 211130Z VRB02KT CAVOK 13/07 Q1029 NOSIG

TAF TAF LFPO
Valide du 21 à 12h jusqu'au 22 à 18h UTC


211100Z 2112/2218 22005KT CAVOK
BECMG 2123/2201 3000 BR
PROB40
TEMPO 2202/2208 0800 BCFG VV///
PROB30
TEMPO 2204/2207 0200 FG
BECMG 2212/2214 CAVOK
ATIS : +33 1 49 75 65 80
Pas de NOTAMs connus pour ce terrain.



MET'MAP, la Météo Aéronautique d'un coup d'oeil ! - Copyright ORBIFLY Décembre 2007 - Disclaimer

ORBIFLY MET'MAP TEAM :

Programmation & Développement : Alexandra Zaïnal
Conception & Développement : Baudouin d'Aumeries
Co-Programmation & Développement : Marc-Olivier Méhu
Soutien technique & logistique : Manuel Goepfert

Contact : metmap@orbifly.com




SOURCES & CREDITS :

   NOAA